createdAt,value
2017-07-01T00:00:12.604Z,95155.81
2017-07-01T00:02:40.833Z,95156.86
2017-07-01T00:05:08.487Z,95151.31
2017-07-01T00:07:36.079Z,95149.92
2017-07-01T00:10:03.627Z,95151.71
2017-07-01T00:12:31.196Z,95147.36
2017-07-01T00:14:58.769Z,95142.91
2017-07-01T00:17:26.283Z,95149.48
2017-07-01T00:19:54.397Z,95150.16
2017-07-01T00:22:22.055Z,95147.13
2017-07-01T00:24:49.614Z,95148.55
2017-07-01T00:27:24.384Z,95145.66
2017-07-01T00:29:52.001Z,95155.12
2017-07-01T00:32:19.645Z,95149.67
2017-07-01T00:34:47.232Z,95159.63
2017-07-01T00:37:16.565Z,95160.87
2017-07-01T00:39:45.127Z,95153.81
2017-07-01T00:42:12.697Z,95144.80
2017-07-01T00:44:40.333Z,95153.69
2017-07-01T00:47:07.930Z,95156.52
2017-07-01T00:49:35.524Z,95156.72
2017-07-01T00:52:03.125Z,95153.05
2017-07-01T00:54:30.729Z,95152.97
2017-07-01T00:56:58.292Z,95145.66
2017-07-01T00:59:25.812Z,95156.85
2017-07-01T01:01:53.413Z,95161.41
2017-07-01T01:04:20.959Z,95150.73
2017-07-01T01:06:48.497Z,95152.69
2017-07-01T01:09:16.998Z,95150.12
2017-07-01T01:11:44.620Z,95146.98
2017-07-01T01:14:12.445Z,95157.07
2017-07-01T01:16:40.067Z,95146.87
2017-07-01T01:19:07.628Z,95157.39
2017-07-01T01:21:35.853Z,95140.25
2017-07-01T01:24:03.414Z,95151.44
2017-07-01T01:26:30.954Z,95147.52
2017-07-01T01:28:58.474Z,95152.43
2017-07-01T01:31:26.084Z,95145.73
2017-07-01T01:33:53.613Z,95143.73
2017-07-01T01:36:21.161Z,95163.63
2017-07-01T01:38:48.720Z,95148.75
2017-07-01T01:41:16.287Z,95149.11
2017-07-01T01:43:43.863Z,95152.97
2017-07-01T01:46:11.486Z,95141.98
2017-07-01T01:48:39.051Z,95150.03
2017-07-01T01:51:06.851Z,95141.16
2017-07-01T01:53:34.447Z,95142.25
2017-07-01T01:56:02.070Z,95142.00
2017-07-01T01:58:29.631Z,95148.52
2017-07-01T02:00:57.247Z,95147.48
2017-07-01T02:03:25.049Z,95137.66
2017-07-01T02:05:52.630Z,95141.99
2017-07-01T02:08:20.253Z,95144.89
2017-07-01T02:10:49.861Z,95141.16
2017-07-01T02:13:17.420Z,95144.59
2017-07-01T02:15:50.767Z,95145.45
2017-07-01T02:18:26.321Z,95154.39
2017-07-01T02:21:10.727Z,95153.16
2017-07-01T02:23:49.808Z,95163.11
2017-07-01T02:26:23.958Z,95149.11
2017-07-01T02:28:56.237Z,95149.38
2017-07-01T02:31:24.885Z,95157.46
2017-07-01T02:33:54.867Z,95145.66
2017-07-01T02:36:25.049Z,95144.48
2017-07-01T02:38:53.977Z,95148.69
2017-07-01T02:41:22.619Z,95129.66
2017-07-01T02:43:51.114Z,95138.03
2017-07-01T02:46:36.066Z,95133.61
2017-07-01T02:49:21.965Z,95150.85
2017-07-01T02:52:02.476Z,95122.98
2017-07-01T02:54:35.063Z,95144.61
2017-07-01T02:57:03.048Z,95155.86
2017-07-01T02:59:33.461Z,95148.38
2017-07-01T03:02:01.597Z,95155.70
2017-07-01T03:04:30.746Z,95149.09
2017-07-01T03:06:59.815Z,95150.41
2017-07-01T03:09:28.427Z,95149.80
2017-07-01T03:11:57.405Z,95152.67
2017-07-01T03:14:26.153Z,95149.81
2017-07-01T03:16:55.048Z,95144.84
2017-07-01T03:19:24.990Z,95144.48
2017-07-01T03:21:52.982Z,95131.45
2017-07-01T03:24:22.320Z,95137.45
2017-07-01T03:26:51.022Z,95137.92
2017-07-01T03:29:26.629Z,95139.03
2017-07-01T03:31:55.858Z,95139.78
2017-07-01T03:34:25.100Z,95142.45
2017-07-01T03:37:00.584Z,95138.19
2017-07-01T03:39:40.623Z,95142.81
2017-07-01T03:42:17.746Z,95132.84
2017-07-01T03:44:57.836Z,95145.41
2017-07-01T03:47:32.766Z,95132.73
2017-07-01T03:50:02.480Z,95132.63
2017-07-01T03:52:32.130Z,95132.22
2017-07-01T03:55:00.728Z,95136.31
2017-07-01T03:57:40.992Z,95136.04
2017-07-01T04:00:09.431Z,95131.80
2017-07-01T04:02:39.500Z,95128.42
2017-07-01T04:05:07.678Z,95128.02
2017-07-01T04:07:35.831Z,95130.41
2017-07-01T04:10:08.274Z,95134.27
2017-07-01T04:12:36.884Z,95143.80
2017-07-01T04:15:05.019Z,95145.22
2017-07-01T04:17:32.591Z,95148.52
2017-07-01T04:20:01.161Z,95143.38
2017-07-01T04:22:36.289Z,95148.33
2017-07-01T04:25:05.298Z,95149.90
2017-07-01T04:27:37.972Z,95152.11
2017-07-01T04:30:08.058Z,95146.79
2017-07-01T04:32:36.593Z,95146.84
2017-07-01T04:35:05.234Z,95143.66
2017-07-01T04:37:33.737Z,95150.73
2017-07-01T04:40:07.719Z,95144.52
2017-07-01T04:42:38.010Z,95153.19
2017-07-01T04:45:10.403Z,95150.66
2017-07-01T04:47:58.944Z,95158.09
2017-07-01T04:50:40.905Z,95155.23
2017-07-01T04:53:09.836Z,95156.67
2017-07-01T04:55:39.283Z,95159.54
2017-07-01T04:58:06.837Z,95158.11
2017-07-01T05:00:49.326Z,95149.84
2017-07-01T05:03:16.930Z,95151.57
2017-07-01T05:05:46.283Z,95146.18
2017-07-01T05:08:16.150Z,95141.50
2017-07-01T05:10:54.587Z,95131.02
2017-07-01T05:13:22.222Z,95135.73
2017-07-01T05:15:53.579Z,95131.84
2017-07-01T05:18:21.159Z,95135.23
2017-07-01T05:20:49.599Z,95133.00
2017-07-01T05:23:22.807Z,95138.25
2017-07-01T05:25:59.786Z,95146.90
2017-07-01T05:28:28.170Z,95144.84
2017-07-01T05:31:29.362Z,95148.60
2017-07-01T05:33:57.653Z,95139.16
2017-07-01T05:36:46.473Z,95140.63
2017-07-01T05:39:18.498Z,95134.12
2017-07-01T05:42:22.604Z,95140.58
2017-07-01T05:44:53.925Z,95138.48
2017-07-01T05:47:22.955Z,95139.20
2017-07-01T05:49:50.556Z,95128.43
2017-07-01T05:52:22.033Z,95130.91
2017-07-01T05:54:49.731Z,95119.28
2017-07-01T05:57:17.408Z,95125.23
2017-07-01T05:59:44.987Z,95132.08
2017-07-01T06:02:17.415Z,95121.73
2017-07-01T06:04:45.030Z,95123.58
2017-07-01T06:07:12.884Z,95128.94
2017-07-01T06:09:50.824Z,95121.50
2017-07-01T06:12:32.809Z,95128.05
2017-07-01T06:15:18.547Z,95126.12
2017-07-01T06:17:49.963Z,95135.34
2017-07-01T06:20:43.443Z,95134.23
2017-07-01T06:23:12.647Z,95136.77
2017-07-01T06:26:14.333Z,95137.64
2017-07-01T06:29:07.150Z,95135.03
2017-07-01T06:31:42.955Z,95142.41
2017-07-01T06:34:10.931Z,95133.71
2017-07-01T06:36:39.164Z,95128.80
2017-07-01T06:39:08.523Z,95132.70
2017-07-01T06:41:39.782Z,95125.58
2017-07-01T06:44:23.095Z,95123.61
2017-07-01T06:47:00.068Z,95121.69
2017-07-01T06:49:28.440Z,95115.37
2017-07-01T06:52:00.970Z,95118.09
2017-07-01T06:54:29.876Z,95113.11
2017-07-01T06:56:59.390Z,95115.50
2017-07-01T06:59:39.267Z,95105.69
2017-07-01T07:02:08.216Z,95113.76
2017-07-01T07:04:42.141Z,95109.91
2017-07-01T07:07:10.233Z,95104.62
2017-07-01T07:09:49.873Z,95100.17
2017-07-01T07:12:21.298Z,95104.64
2017-07-01T07:14:49.238Z,95110.01
2017-07-01T07:17:33.059Z,95099.22
2017-07-01T07:20:00.631Z,95094.88
2017-07-01T07:22:28.238Z,95088.67
2017-07-01T07:25:17.941Z,95085.02
2017-07-01T07:27:46.314Z,95094.36
2017-07-01T07:30:14.141Z,95084.76
2017-07-01T07:32:41.889Z,95077.37
2017-07-01T07:35:09.460Z,95078.38
2017-07-01T07:37:37.242Z,95076.97
2017-07-01T07:40:04.909Z,95083.86
2017-07-01T07:42:32.565Z,95074.02
2017-07-01T07:45:00.207Z,95078.83
2017-07-01T07:47:28.139Z,95074.86
2017-07-01T07:50:05.295Z,95078.45
2017-07-01T07:52:34.531Z,95068.16
2017-07-01T07:55:02.088Z,95071.08
2017-07-01T07:57:30.958Z,95064.36
2017-07-01T07:59:58.503Z,95067.08
2017-07-01T08:02:26.182Z,95066.36
2017-07-01T08:04:53.931Z,95058.71
2017-07-01T08:07:21.588Z,95056.92
2017-07-01T08:09:49.273Z,95061.60
2017-07-01T08:12:16.894Z,95050.77
2017-07-01T08:14:44.451Z,95054.70
2017-07-01T08:17:12.044Z,95043.75
2017-07-01T08:19:39.837Z,95036.80
2017-07-01T08:22:08.571Z,95031.58
2017-07-01T08:24:36.634Z,95029.41
2017-07-01T08:27:04.252Z,95027.99
2017-07-01T08:29:32.223Z,95032.83
2017-07-01T08:31:59.894Z,95029.07
2017-07-01T08:34:27.502Z,95019.58
2017-07-01T08:36:55.075Z,95017.81
2017-07-01T08:39:22.732Z,95011.27
2017-07-01T08:41:50.332Z,95011.45
2017-07-01T08:44:18.012Z,95026.33
2017-07-01T08:46:46.102Z,95022.96
2017-07-01T08:49:13.670Z,95021.41
2017-07-01T08:51:41.350Z,95019.44
2017-07-01T08:54:08.957Z,95016.09
2017-07-01T08:56:37.233Z,95019.82
2017-07-01T08:59:06.118Z,95009.70
2017-07-01T09:01:35.169Z,95011.00
2017-07-01T09:04:04.528Z,95005.54
2017-07-01T09:06:32.128Z,95010.05
2017-07-01T09:09:00.362Z,94994.02
2017-07-01T09:11:28.585Z,94989.66
2017-07-01T09:13:56.188Z,95000.42
2017-07-01T09:16:23.770Z,94995.05
2017-07-01T09:18:51.293Z,94988.59
2017-07-01T09:21:19.083Z,94987.16
2017-07-01T09:23:46.797Z,94985.23
2017-07-01T09:26:14.395Z,94985.95
2017-07-01T09:28:41.940Z,94990.86
2017-07-01T09:31:10.458Z,94986.92
2017-07-01T09:33:37.999Z,94987.89
2017-07-01T09:36:05.549Z,94980.46
2017-07-01T09:38:33.137Z,94980.30
2017-07-01T09:41:00.765Z,94977.55
2017-07-01T09:43:28.567Z,94990.23
2017-07-01T09:45:56.318Z,94988.14
2017-07-01T09:48:24.109Z,94987.56
2017-07-01T09:50:51.633Z,94979.11
2017-07-01T09:53:19.211Z,94970.19
2017-07-01T09:55:46.761Z,94968.81
2017-07-01T09:58:14.293Z,94977.56
2017-07-01T10:00:41.848Z,94984.23
2017-07-01T10:03:09.665Z,94975.48
2017-07-01T10:05:37.256Z,94976.61
2017-07-01T10:08:05.040Z,94968.14
2017-07-01T10:10:32.666Z,94969.22
2017-07-01T10:13:00.219Z,94983.11
2017-07-01T10:15:27.837Z,94969.72
2017-07-01T10:17:55.441Z,94961.09
2017-07-01T10:20:23.174Z,94968.03
2017-07-01T10:22:50.806Z,94972.27
2017-07-01T10:25:18.348Z,94967.05
2017-07-01T10:27:45.914Z,94956.97
2017-07-01T10:30:13.546Z,94956.31
2017-07-01T10:32:41.658Z,94956.20
2017-07-01T10:35:09.401Z,94955.08
2017-07-01T10:37:36.970Z,94960.91
2017-07-01T10:40:04.566Z,94953.23
2017-07-01T10:42:32.132Z,94954.63
2017-07-01T10:44:59.710Z,94952.48
2017-07-01T10:47:27.481Z,94944.75
2017-07-01T10:49:55.569Z,94932.97
2017-07-01T10:52:23.135Z,94946.48
2017-07-01T10:54:50.886Z,94935.80
2017-07-01T10:57:18.468Z,94933.97
2017-07-01T10:59:46.044Z,94936.72
2017-07-01T11:02:13.622Z,94937.50
2017-07-01T11:04:41.202Z,94948.75
2017-07-01T11:07:08.950Z,94937.95
2017-07-01T11:16:39.990Z,94944.33
2017-07-01T11:19:15.020Z,94940.02
2017-07-01T11:31:17.996Z,94929.18
2017-07-01T11:33:59.572Z,94925.14
2017-07-01T11:50:05.111Z,94927.98
2017-07-01T11:53:01.864Z,94917.14
2017-07-01T11:58:37.342Z,94922.91
2017-07-01T12:01:05.526Z,94911.52
2017-07-01T12:03:33.173Z,94915.90
2017-07-01T12:06:00.839Z,94904.12
2017-07-01T12:08:28.821Z,94910.44
2017-07-01T12:10:56.500Z,94913.56
2017-07-01T12:13:24.175Z,94915.41
2017-07-01T12:15:52.033Z,94911.66
2017-07-01T12:18:19.702Z,94910.11
2017-07-01T12:20:47.410Z,94909.49
2017-07-01T12:23:15.104Z,94906.91
2017-07-01T12:25:42.772Z,94906.16
2017-07-01T12:28:10.426Z,94906.06
2017-07-01T12:30:38.079Z,94902.97
2017-07-01T12:33:06.375Z,94895.02
2017-07-01T12:35:34.286Z,94894.39
2017-07-01T12:38:01.967Z,94906.02
2017-07-01T12:40:29.634Z,94896.99
2017-07-01T12:42:57.905Z,94889.86
2017-07-01T12:45:25.587Z,94886.56
2017-07-01T12:47:53.700Z,94883.36
2017-07-01T12:50:21.332Z,94885.07
2017-07-01T12:52:49.009Z,94880.79
2017-07-01T12:55:22.711Z,94876.16
2017-07-01T12:57:55.284Z,94868.45
2017-07-01T13:00:32.473Z,94872.67
2017-07-01T13:03:07.905Z,94873.67
2017-07-01T13:05:37.269Z,94870.61
2017-07-01T13:08:11.454Z,94869.29
2017-07-01T13:10:39.395Z,94862.61
2017-07-01T13:13:07.018Z,94859.20
2017-07-01T13:15:34.713Z,94856.52
2017-07-01T13:18:02.611Z,94855.42
2017-07-01T13:20:30.243Z,94850.91
2017-07-01T13:22:57.877Z,94859.81
2017-07-01T13:25:25.530Z,94855.66
2017-07-01T13:27:53.141Z,94859.80
2017-07-01T13:30:20.837Z,94860.40
2017-07-01T13:32:48.450Z,94853.88
2017-07-01T13:35:16.248Z,94852.30
2017-07-01T13:37:43.868Z,94856.80
2017-07-01T13:40:12.145Z,94856.26
2017-07-01T13:42:39.816Z,94863.92
2017-07-01T13:45:07.478Z,94855.18
2017-07-01T13:47:35.076Z,94847.16
2017-07-01T13:50:03.153Z,94854.47
2017-07-01T13:52:30.774Z,94847.38
2017-07-01T13:54:58.444Z,94850.93
2017-07-01T13:57:26.071Z,94847.61
2017-07-01T14:00:01.443Z,94857.64
2017-07-01T14:02:29.189Z,94846.27
2017-07-01T14:04:56.834Z,94850.36
2017-07-01T14:07:24.706Z,94848.00
2017-07-01T14:09:52.376Z,94842.84
2017-07-01T14:12:20.187Z,94826.70
2017-07-01T14:14:47.841Z,94847.73
2017-07-01T14:17:15.513Z,94832.89
2017-07-01T14:19:43.805Z,94836.17
2017-07-01T14:22:11.730Z,94842.36
2017-07-01T14:24:39.370Z,94832.52
2017-07-01T14:27:07.009Z,94832.72
2017-07-01T14:29:34.629Z,94827.14
2017-07-01T14:32:02.247Z,94824.34
2017-07-01T14:34:30.161Z,94832.51
2017-07-01T14:36:59.161Z,94814.52
2017-07-01T14:39:27.470Z,94819.13
2017-07-01T14:41:55.086Z,94806.44
2017-07-01T14:44:23.629Z,94811.91
2017-07-01T14:46:52.138Z,94818.66
2017-07-01T14:49:20.599Z,94816.63
2017-07-01T14:51:48.226Z,94818.36
2017-07-01T14:54:15.867Z,94818.50
2017-07-01T14:56:44.335Z,94816.38
2017-07-01T14:59:11.933Z,94812.73
2017-07-01T15:01:39.611Z,94812.73
2017-07-01T15:04:07.231Z,94803.59
2017-07-01T15:06:34.860Z,94805.05
2017-07-01T15:09:02.493Z,94799.13
2017-07-01T15:11:31.066Z,94806.56
2017-07-01T15:14:00.364Z,94796.61
2017-07-01T15:16:44.281Z,94798.08
2017-07-01T15:19:13.899Z,94797.28
2017-07-01T15:21:47.630Z,94796.63
2017-07-01T15:24:36.466Z,94793.29
2017-07-01T15:27:14.270Z,94793.63
2017-07-01T15:29:42.501Z,94793.23
2017-07-01T15:32:10.145Z,94796.38
2017-07-01T15:34:37.994Z,94802.72
2017-07-01T15:37:06.292Z,94802.41
2017-07-01T15:39:34.443Z,94801.24
2017-07-01T15:42:02.091Z,94804.33
2017-07-01T15:44:30.352Z,94800.52
2017-07-01T15:46:57.978Z,94802.08
2017-07-01T15:49:25.878Z,94806.91
2017-07-01T15:51:53.881Z,94803.13
2017-07-01T15:54:21.544Z,94798.80
2017-07-01T15:56:49.658Z,94800.69
2017-07-01T15:59:17.290Z,94799.81
2017-07-01T16:01:51.876Z,94804.42
2017-07-01T16:04:19.489Z,94800.20
2017-07-01T16:06:47.097Z,94801.22
2017-07-01T16:09:14.899Z,94802.63
2017-07-01T16:11:42.509Z,94800.97
2017-07-01T16:14:10.302Z,94801.84
2017-07-01T16:16:37.943Z,94800.36
2017-07-01T16:19:06.644Z,94805.41
2017-07-01T16:21:34.343Z,94806.12
2017-07-01T16:24:02.026Z,94805.25
2017-07-01T16:26:29.691Z,94798.38
2017-07-01T16:28:57.495Z,94808.63
2017-07-01T16:31:25.158Z,94805.42
2017-07-01T16:33:52.778Z,94807.26
2017-07-01T16:36:20.420Z,94803.16
2017-07-01T16:38:48.780Z,94811.49
2017-07-01T16:41:17.103Z,94806.02
2017-07-01T16:43:44.729Z,94814.45
2017-07-01T16:46:12.350Z,94808.55
2017-07-01T16:48:40.120Z,94807.91
2017-07-01T16:51:07.738Z,94803.69
2017-07-01T16:53:35.389Z,94803.62
2017-07-01T16:56:03.073Z,94802.06
2017-07-01T16:58:30.885Z,94804.98
2017-07-01T17:00:59.286Z,94812.04
2017-07-01T17:03:26.901Z,94812.53
2017-07-01T17:05:55.120Z,94806.66
2017-07-01T17:08:22.760Z,94813.07
2017-07-01T17:10:50.359Z,94808.31
2017-07-01T17:13:18.940Z,94806.78
2017-07-01T17:15:46.628Z,94809.74
2017-07-01T17:18:14.269Z,94808.34
2017-07-01T17:20:41.897Z,94803.09
2017-07-01T17:23:09.537Z,94800.02
2017-07-01T17:25:37.187Z,94798.59
2017-07-01T17:28:04.898Z,94807.25
2017-07-01T17:30:33.434Z,94809.93
2017-07-01T17:33:01.058Z,94806.34
2017-07-01T17:35:28.721Z,94809.29
2017-07-01T17:37:56.397Z,94812.58
2017-07-01T17:40:24.001Z,94804.54
2017-07-01T17:42:51.616Z,94799.43
2017-07-01T17:45:20.065Z,94800.55
2017-07-01T17:47:47.685Z,94803.13
2017-07-01T17:50:15.308Z,94797.72
2017-07-01T17:52:42.963Z,94798.20
2017-07-01T17:55:11.236Z,94804.30
2017-07-01T17:57:39.209Z,94807.70
2017-07-01T18:00:07.167Z,94813.20
2017-07-01T18:02:35.375Z,94812.02
2017-07-01T18:05:02.955Z,94814.05
2017-07-01T18:07:31.216Z,94811.84
2017-07-01T18:09:58.803Z,94811.33
2017-07-01T18:12:26.399Z,94810.11
2017-07-01T18:14:54.678Z,94816.74
2017-07-01T18:17:23.087Z,94817.48
2017-07-01T18:19:51.136Z,94817.97
2017-07-01T18:22:18.738Z,94821.26
2017-07-01T18:24:47.290Z,94823.50
2017-07-01T18:27:14.893Z,94817.91
2017-07-01T18:29:42.621Z,94823.77
2017-07-01T18:32:10.444Z,94827.64
2017-07-01T18:34:38.124Z,94827.02
2017-07-01T18:37:05.760Z,94835.06
2017-07-01T18:39:33.428Z,94834.84
2017-07-01T18:42:01.061Z,94837.77
2017-07-01T18:44:28.692Z,94831.75
2017-07-01T18:46:56.303Z,94843.25
2017-07-01T18:49:24.646Z,94847.48
2017-07-01T18:51:52.234Z,94846.15
2017-07-01T18:54:19.869Z,94854.00
2017-07-01T18:56:47.517Z,94858.00
2017-07-01T18:59:15.160Z,94856.20
2017-07-01T19:01:42.801Z,94866.53
2017-07-01T19:04:10.402Z,94857.52
2017-07-01T19:06:37.982Z,94870.36
2017-07-01T19:09:07.926Z,94871.56
2017-07-01T19:11:36.218Z,94874.48
2017-07-01T19:14:03.818Z,94875.62
2017-07-01T19:16:31.470Z,94873.87
2017-07-01T19:18:59.063Z,94877.83
2017-07-01T19:21:26.899Z,94874.13
2017-07-01T19:23:54.551Z,94869.04
2017-07-01T19:26:22.158Z,94874.69
2017-07-01T19:28:50.461Z,94874.64
2017-07-01T19:31:18.821Z,94869.48
2017-07-01T19:33:46.502Z,94877.84
2017-07-01T19:36:14.948Z,94870.58
2017-07-01T19:38:42.755Z,94876.67
2017-07-01T19:41:11.140Z,94880.94
2017-07-01T19:43:38.793Z,94870.21
2017-07-01T19:46:06.594Z,94872.31
2017-07-01T19:48:34.174Z,94871.19
2017-07-01T19:51:01.801Z,94874.36
2017-07-01T19:53:29.484Z,94879.44
2017-07-01T19:55:57.235Z,94879.62
2017-07-01T19:58:24.890Z,94883.58
2017-07-01T20:00:52.529Z,94877.44
2017-07-01T20:03:20.138Z,94878.28
2017-07-01T20:05:47.702Z,94879.68
2017-07-01T20:08:15.834Z,94877.38
2017-07-01T20:10:43.471Z,94881.68
2017-07-01T20:13:11.096Z,94883.70
2017-07-01T20:15:38.838Z,94882.78
2017-07-01T20:18:06.421Z,94882.77
2017-07-01T20:20:34.555Z,94879.31
2017-07-01T20:23:04.747Z,94882.89
2017-07-01T20:25:33.213Z,94881.48
2017-07-01T20:28:00.894Z,94881.70
2017-07-01T20:30:28.729Z,94875.03
2017-07-01T20:32:56.351Z,94876.27
2017-07-01T20:35:23.996Z,94892.81
2017-07-01T20:37:52.505Z,94887.03
2017-07-01T20:40:21.109Z,94887.27
2017-07-01T20:42:49.576Z,94886.16
2017-07-01T20:45:17.171Z,94895.05
2017-07-01T20:47:45.713Z,94888.73
2017-07-01T20:50:13.373Z,94896.77
2017-07-01T20:52:41.075Z,94899.17
2017-07-01T20:55:09.262Z,94907.20
2017-07-01T20:57:36.826Z,94907.88
2017-07-01T21:00:05.475Z,94905.41
2017-07-01T21:02:33.095Z,94901.48
2017-07-01T21:05:00.842Z,94902.10
2017-07-01T21:07:28.433Z,94901.16
2017-07-01T21:09:56.031Z,94906.02
2017-07-01T21:12:24.172Z,94899.96
2017-07-01T21:14:51.824Z,94904.80
2017-07-01T21:17:19.430Z,94912.05
2017-07-01T21:19:47.043Z,94903.15
2017-07-01T21:22:15.575Z,94901.81
2017-07-01T21:24:43.246Z,94907.39
2017-07-01T21:27:10.907Z,94908.02
2017-07-01T21:29:38.530Z,94907.39
2017-07-01T21:32:06.416Z,94910.30
2017-07-01T21:34:34.019Z,94906.88
2017-07-01T21:37:01.565Z,94910.28
2017-07-01T21:39:29.215Z,94911.22
2017-07-01T21:41:57.280Z,94909.55
2017-07-01T21:44:25.338Z,94910.02
2017-07-01T21:46:52.993Z,94906.95
2017-07-01T21:49:20.956Z,94915.00
2017-07-01T21:51:49.150Z,94916.45
2017-07-01T21:54:17.703Z,94913.52
2017-07-01T21:56:45.371Z,94909.11
2017-07-01T21:59:12.998Z,94913.74
2017-07-01T22:01:40.688Z,94922.47
2017-07-01T22:04:08.839Z,94927.59
2017-07-01T22:06:36.497Z,94919.39
2017-07-01T22:09:04.170Z,94922.17
2017-07-01T22:11:31.734Z,94922.02
2017-07-01T22:14:00.266Z,94924.94
2017-07-01T22:16:28.284Z,94933.88
2017-07-01T22:18:55.911Z,94928.88
2017-07-01T22:21:23.468Z,94928.58
2017-07-01T22:23:51.076Z,94934.73
2017-07-01T22:26:18.670Z,94931.83
2017-07-01T22:28:46.300Z,94927.28
2017-07-01T22:31:14.148Z,94924.20
2017-07-01T22:33:41.778Z,94932.94
2017-07-01T22:36:09.448Z,94926.69
2017-07-01T22:38:37.079Z,94931.84
2017-07-01T22:41:04.664Z,94930.75
2017-07-01T22:43:32.251Z,94938.39
2017-07-01T22:46:00.150Z,94938.50
2017-07-01T22:48:27.724Z,94934.59
2017-07-01T22:50:55.365Z,94934.77
2017-07-01T22:53:23.042Z,94939.45
2017-07-01T22:55:50.650Z,94937.33
2017-07-01T22:58:18.264Z,94941.83
2017-07-01T23:00:45.849Z,94933.19
2017-07-01T23:03:13.466Z,94932.83
2017-07-01T23:05:41.122Z,94928.89
2017-07-01T23:08:08.797Z,94929.06
2017-07-01T23:10:36.391Z,94915.30
2017-07-01T23:13:04.005Z,94914.03
2017-07-01T23:15:31.605Z,94919.73
2017-07-01T23:17:59.227Z,94933.27
2017-07-01T23:20:27.560Z,94927.48
2017-07-01T23:22:55.162Z,94925.27
2017-07-01T23:25:22.745Z,94926.83
2017-07-01T23:27:50.320Z,94932.55
2017-07-01T23:30:18.775Z,94930.45
2017-07-01T23:32:46.352Z,94935.99
2017-07-01T23:35:13.978Z,94940.44
2017-07-01T23:37:41.647Z,94938.34
2017-07-01T23:40:10.347Z,94945.55
2017-07-01T23:42:37.965Z,94946.22
2017-07-01T23:45:06.488Z,94945.66
2017-07-01T23:47:34.275Z,94950.66
2017-07-01T23:50:02.039Z,94954.80
2017-07-01T23:52:29.706Z,94948.42
2017-07-01T23:54:57.484Z,94956.41
2017-07-01T23:57:25.082Z,94957.99
2017-07-01T23:59:52.691Z,94961.28
